createdAt,value
2019-04-23T00:00:08.304Z,2.20
2019-04-23T00:02:50.862Z,2.42
2019-04-23T00:05:17.249Z,2.35
2019-04-23T00:08:14.011Z,1.98
2019-04-23T00:10:19.461Z,2.00
2019-04-23T00:12:49.511Z,1.90
2019-04-23T00:15:20.293Z,2.47
2019-04-23T00:18:02.796Z,1.60
2019-04-23T00:22:52.854Z,1.95
2019-04-23T00:27:59.441Z,2.87
2019-04-23T00:30:28.245Z,2.02
2019-04-23T00:32:58.379Z,2.65
2019-04-23T00:35:24.408Z,1.42
2019-04-23T00:37:57.643Z,2.17
2019-04-23T00:40:25.982Z,1.85
2019-04-23T00:43:00.621Z,1.90
2019-04-23T00:45:24.466Z,1.90
2019-04-23T00:50:30.365Z,2.80
2019-04-23T00:52:58.799Z,2.20
2019-04-23T00:55:21.102Z,1.90
2019-04-23T00:57:58.159Z,2.20
2019-04-23T01:00:36.146Z,2.30
2019-04-23T01:02:59.067Z,2.35
2019-04-23T01:05:30.687Z,2.25
2019-04-23T01:07:58.250Z,1.95
2019-04-23T01:10:53.945Z,1.90
2019-04-23T01:13:25.152Z,2.77
2019-04-23T01:15:53.630Z,2.50
2019-04-23T01:20:52.795Z,1.98
2019-04-23T01:23:13.748Z,2.30
2019-04-23T01:25:54.649Z,2.70
2019-04-23T01:28:43.571Z,2.45
2019-04-23T01:31:14.721Z,2.70
2019-04-23T01:41:13.175Z,2.75
2019-04-23T01:43:41.112Z,2.90
2019-04-23T01:48:45.529Z,1.95
2019-04-23T01:51:08.209Z,3.05
2019-04-23T01:53:38.686Z,2.70
2019-04-23T01:56:11.465Z,2.25
2019-04-23T02:01:12.872Z,2.92
2019-04-23T02:03:42.739Z,2.70
2019-04-23T02:06:14.685Z,2.50
2019-04-23T02:08:47.052Z,2.98
2019-04-23T02:13:43.530Z,2.70
2019-04-23T02:16:10.208Z,2.60
2019-04-23T02:18:43.947Z,3.05
2019-04-23T02:23:57.242Z,3.20
2019-04-23T02:26:20.119Z,2.75
2019-04-23T02:31:33.045Z,3.00
2019-04-23T02:34:00.429Z,3.10
2019-04-23T02:36:34.357Z,3.22
2019-04-23T02:41:26.706Z,2.17
2019-04-23T02:43:59.556Z,2.92
2019-04-23T02:51:26.816Z,3.22
2019-04-23T02:54:04.661Z,3.37
2019-04-23T02:59:05.607Z,3.27
2019-04-23T03:06:32.196Z,3.08
2019-04-23T03:09:15.235Z,3.10
2019-04-23T03:16:38.178Z,2.70
2019-04-23T03:19:29.598Z,3.47
2019-04-23T03:24:36.628Z,3.58
2019-04-23T03:27:10.232Z,2.80
2019-04-23T03:29:31.669Z,3.12
2019-04-23T03:35:10.208Z,2.72
2019-04-23T03:39:44.239Z,3.42
2019-04-23T03:42:02.789Z,3.75
2019-04-23T03:44:29.867Z,4.35
2019-04-23T03:47:07.051Z,3.35
2019-04-23T03:49:30.077Z,3.77
2019-04-23T03:52:07.469Z,2.72
2019-04-23T03:54:39.792Z,3.10
2019-04-23T03:57:13.532Z,3.60
2019-04-23T04:02:12.325Z,3.62
2019-04-23T04:04:34.990Z,3.35
2019-04-23T04:07:18.588Z,3.50
2019-04-23T04:09:34.211Z,3.10
2019-04-23T04:12:04.115Z,3.50
2019-04-23T04:14:38.928Z,3.60
2019-04-23T04:17:09.804Z,3.47
2019-04-23T04:24:34.935Z,4.45
2019-04-23T04:27:13.606Z,3.87
2019-04-23T04:29:40.804Z,3.60
2019-04-23T04:37:36.155Z,3.87
2019-04-23T04:39:34.335Z,4.20
2019-04-23T04:46:59.799Z,4.17
2019-04-23T04:49:42.547Z,3.60
2019-04-23T04:52:21.864Z,4.55
2019-04-23T04:54:22.920Z,4.45
2019-04-23T04:57:12.743Z,4.62
2019-04-23T04:59:45.756Z,3.90
2019-04-23T05:09:48.172Z,4.45
2019-04-23T05:12:16.314Z,4.33
2019-04-23T05:17:07.904Z,4.10
2019-04-23T05:19:53.344Z,4.10
2019-04-23T05:24:36.726Z,4.45
2019-04-23T05:27:03.341Z,3.35
2019-04-23T05:29:50.281Z,4.00
2019-04-23T05:32:07.486Z,4.33
2019-04-23T05:34:38.081Z,4.10
2019-04-23T05:37:04.970Z,4.33
2019-04-23T05:39:38.474Z,4.30
2019-04-23T05:42:04.201Z,4.42
2019-04-23T05:44:42.956Z,3.90
2019-04-23T05:47:14.996Z,3.60
2019-04-23T05:49:41.320Z,3.90
2019-04-23T05:52:11.642Z,3.52
2019-04-23T05:54:45.009Z,4.28
2019-04-23T05:57:09.953Z,4.17
2019-04-23T06:02:20.786Z,3.90
2019-04-23T06:04:49.554Z,4.57
2019-04-23T06:09:56.681Z,3.60
2019-04-23T06:12:19.016Z,4.70
2019-04-23T06:14:57.705Z,4.37
2019-04-23T06:17:24.992Z,4.60
2019-04-23T06:20:07.866Z,4.40
2019-04-23T06:22:38.935Z,4.30
2019-04-23T06:25:14.945Z,4.37
2019-04-23T06:27:33.860Z,4.50
2019-04-23T06:30:04.550Z,6.03
2019-04-23T06:32:38.877Z,5.43
2019-04-23T06:35:03.742Z,4.63
2019-04-23T06:38:03.244Z,5.20
2019-04-23T06:40:13.900Z,4.93
2019-04-23T06:42:54.816Z,4.43
2019-04-23T06:45:26.093Z,4.80
2019-04-23T06:47:54.054Z,4.10
2019-04-23T06:50:30.138Z,4.83
2019-04-23T06:52:49.995Z,4.70
2019-04-23T06:55:29.674Z,4.67
2019-04-23T06:57:55.268Z,5.10
2019-04-23T07:00:34.247Z,4.50
2019-04-23T07:03:11.087Z,5.60
2019-04-23T07:05:37.649Z,4.60
2019-04-23T07:08:13.590Z,5.67
2019-04-23T07:10:55.531Z,4.83
2019-04-23T07:13:29.115Z,5.17
2019-04-23T07:15:55.247Z,4.70
2019-04-23T07:18:22.535Z,4.83
2019-04-23T07:21:00.942Z,4.30
2019-04-23T07:23:41.777Z,5.53
2019-04-23T07:26:10.550Z,5.80
2019-04-23T07:28:49.964Z,5.77
2019-04-23T07:31:07.419Z,4.60
2019-04-23T07:33:38.217Z,5.00
2019-04-23T07:36:20.670Z,4.70
2019-04-23T07:41:55.562Z,5.40
2019-04-23T07:44:36.843Z,4.73
2019-04-23T07:47:15.693Z,4.80
2019-04-23T07:50:05.815Z,5.17
2019-04-23T08:00:47.125Z,6.30
2019-04-23T08:03:27.385Z,4.90
2019-04-23T08:08:43.795Z,5.00
2019-04-23T08:16:34.330Z,5.17
2019-04-23T08:19:11.517Z,5.30
2019-04-23T08:21:43.972Z,4.80
2019-04-23T08:24:49.040Z,5.60
2019-04-23T08:27:24.996Z,4.60
2019-04-23T08:29:58.844Z,4.90
2019-04-23T08:32:27.984Z,6.00
2019-04-23T08:35:31.526Z,4.53
2019-04-23T08:40:58.871Z,4.97
2019-04-23T08:46:15.549Z,4.70
2019-04-23T08:52:07.116Z,5.37
2019-04-23T08:54:47.844Z,5.30
2019-04-23T08:59:47.573Z,4.50
2019-04-23T09:02:40.399Z,4.67
2019-04-23T09:10:33.942Z,5.10
2019-04-23T09:13:33.218Z,4.90
2019-04-23T09:15:44.962Z,6.40
2019-04-23T09:18:17.955Z,5.53
2019-04-23T09:20:37.527Z,4.80
2019-04-23T09:23:20.615Z,5.57
2019-04-23T09:28:33.211Z,4.63
2019-04-23T09:34:00.546Z,5.07
2019-04-23T09:42:54.552Z,4.50
2019-04-23T09:53:46.898Z,5.40
2019-04-23T09:56:22.389Z,4.27
2019-04-23T09:58:51.745Z,5.10
2019-04-23T10:01:39.360Z,5.10
2019-04-23T10:03:50.976Z,5.30
2019-04-23T10:06:20.935Z,5.07
2019-04-23T10:08:55.581Z,5.33
2019-04-23T10:11:26.064Z,4.80
2019-04-23T10:16:55.834Z,4.97
2019-04-23T10:19:30.756Z,5.57
2019-04-23T10:22:11.265Z,5.10
2019-04-23T10:24:55.091Z,5.60
2019-04-23T10:27:30.201Z,5.30
2019-04-23T10:30:14.434Z,4.67
2019-04-23T10:32:41.297Z,5.80
2019-04-23T10:35:22.120Z,5.63
2019-04-23T10:37:49.089Z,5.60
2019-04-23T10:40:16.996Z,5.63
2019-04-23T10:42:56.466Z,5.63
2019-04-23T10:45:42.553Z,5.20
2019-04-23T10:48:49.723Z,6.10
2019-04-23T10:51:24.949Z,6.00
2019-04-23T10:54:07.354Z,5.83
2019-04-23T10:59:17.007Z,6.33
2019-04-23T11:01:53.131Z,6.17
2019-04-23T11:04:32.869Z,6.13
2019-04-23T11:06:45.071Z,5.80
2019-04-23T11:09:38.594Z,4.97
2019-04-23T11:12:05.951Z,5.40
2019-04-23T11:14:33.825Z,5.03
2019-04-23T11:17:06.183Z,5.30
2019-04-23T11:19:40.427Z,5.80
2019-04-23T11:22:28.166Z,5.57
2019-04-23T11:24:41.931Z,5.60
2019-04-23T11:27:20.774Z,5.90
2019-04-23T11:32:40.830Z,5.37
2019-04-23T11:35:03.239Z,6.00
2019-04-23T11:37:25.415Z,5.97
2019-04-23T11:39:45.390Z,5.13
2019-04-23T11:44:51.128Z,6.10
2019-04-23T11:47:42.404Z,6.17
2019-04-23T11:49:53.573Z,5.47
2019-04-23T11:52:19.365Z,6.10
2019-04-23T11:54:46.826Z,5.80
2019-04-23T11:59:53.501Z,5.23
2019-04-23T12:02:32.605Z,6.00
2019-04-23T12:05:17.146Z,6.70
2019-04-23T12:10:34.278Z,6.37
2019-04-23T12:12:44.619Z,5.80
2019-04-23T12:15:32.971Z,5.37
2019-04-23T12:18:05.456Z,5.77
2019-04-23T12:23:35.049Z,5.50
2019-04-23T12:25:58.695Z,5.37
2019-04-23T12:31:23.532Z,5.40
2019-04-23T12:36:46.884Z,6.67
2019-04-23T12:39:12.407Z,5.47
2019-04-23T12:41:51.113Z,4.57
2019-04-23T12:44:14.863Z,5.37
2019-04-23T12:50:18.841Z,5.13
2019-04-23T12:55:06.916Z,4.80
2019-04-23T13:00:00.336Z,5.00
2019-04-23T13:05:05.172Z,5.27
2019-04-23T13:07:41.477Z,5.60
2019-04-23T13:20:23.542Z,5.00
2019-04-23T13:25:34.967Z,5.27
2019-04-23T13:30:46.438Z,5.90
2019-04-23T13:35:53.676Z,5.17
2019-04-23T13:38:17.500Z,5.00
2019-04-23T13:43:19.501Z,5.27
2019-04-23T13:45:59.195Z,4.50
2019-04-23T13:48:13.398Z,5.70
2019-04-23T13:50:49.985Z,4.70
2019-04-23T13:53:28.525Z,4.47
2019-04-23T13:55:52.536Z,5.93
2019-04-23T14:01:24.637Z,4.80
2019-04-23T14:03:39.654Z,5.30
2019-04-23T14:06:09.082Z,5.60
2019-04-23T14:08:46.980Z,4.33
2019-04-23T14:11:19.723Z,5.93
2019-04-23T14:16:34.011Z,5.80
2019-04-23T14:19:06.745Z,4.67
2019-04-23T14:21:42.532Z,4.50
2019-04-23T14:24:18.134Z,4.70
2019-04-23T14:26:34.055Z,5.00
2019-04-23T14:29:04.535Z,6.17
2019-04-23T14:31:54.102Z,5.33
2019-04-23T14:34:11.489Z,6.67
2019-04-23T14:36:47.759Z,5.00
2019-04-23T14:39:16.209Z,5.43
2019-04-23T14:41:43.308Z,4.80
2019-04-23T14:44:31.301Z,4.80
2019-04-23T14:49:41.114Z,5.40
2019-04-23T14:52:06.627Z,5.00
2019-04-23T14:55:11.433Z,5.97
2019-04-23T14:59:59.127Z,5.10
2019-04-23T15:02:27.157Z,5.60
2019-04-23T15:05:05.776Z,5.20
2019-04-23T15:10:10.582Z,5.10
2019-04-23T15:17:49.714Z,4.77
2019-04-23T15:20:23.029Z,5.03
2019-04-23T15:23:17.026Z,6.17
2019-04-23T15:25:40.337Z,5.10
2019-04-23T15:30:28.111Z,6.50
2019-04-23T15:36:08.776Z,6.00
2019-04-23T15:41:03.752Z,5.40
2019-04-23T15:43:12.471Z,5.53
2019-04-23T15:45:44.544Z,5.23
2019-04-23T15:50:53.748Z,5.00
2019-04-23T15:53:11.043Z,4.37
2019-04-23T15:55:59.724Z,5.70
2019-04-23T15:58:33.238Z,5.80
2019-04-23T16:01:21.851Z,5.67
2019-04-23T16:03:24.572Z,5.53
2019-04-23T16:05:57.124Z,5.43
2019-04-23T16:17:08.197Z,4.30
2019-04-23T16:20:09.289Z,5.37
2019-04-23T16:25:06.733Z,5.20
2019-04-23T16:27:41.630Z,6.43
2019-04-23T16:30:50.443Z,5.80
2019-04-23T16:33:11.389Z,5.10
2019-04-23T16:36:01.947Z,5.30
2019-04-23T16:38:40.831Z,6.00
2019-04-23T16:41:09.253Z,4.53
2019-04-23T16:43:50.453Z,5.23
2019-04-23T16:46:24.030Z,5.20
2019-04-23T16:49:09.021Z,4.77
2019-04-23T16:51:29.664Z,4.40
2019-04-23T17:00:02.955Z,4.93
2019-04-23T17:02:19.290Z,5.10
2019-04-23T17:05:02.900Z,5.37
2019-04-23T17:13:09.912Z,5.30
2019-04-23T17:15:46.635Z,5.43
2019-04-23T17:18:31.709Z,5.50
2019-04-23T17:21:01.840Z,4.60
2019-04-23T17:23:59.505Z,5.13
2019-04-23T17:26:23.533Z,5.60
2019-04-23T17:31:35.273Z,5.07
2019-04-23T17:34:12.108Z,5.60
2019-04-23T17:37:00.652Z,5.37
2019-04-23T17:43:04.614Z,5.30
2019-04-23T17:48:35.888Z,6.03
2019-04-23T17:51:14.455Z,4.77
2019-04-23T17:54:04.820Z,5.00
2019-04-23T17:56:54.363Z,5.67
2019-04-23T18:02:36.078Z,5.60
2019-04-23T18:04:44.024Z,4.80
2019-04-23T18:07:31.925Z,5.67
2019-04-23T18:10:01.170Z,5.43
2019-04-23T18:12:36.094Z,6.10
2019-04-23T18:15:15.567Z,5.07
2019-04-23T18:23:22.671Z,5.00
2019-04-23T18:26:00.210Z,4.83
2019-04-23T18:28:30.058Z,4.50
2019-04-23T18:31:11.102Z,4.77
2019-04-23T18:36:13.470Z,5.27
2019-04-23T18:41:43.528Z,5.70
2019-04-23T18:47:14.513Z,5.33
2019-04-23T18:49:45.084Z,5.70
2019-04-23T18:52:17.943Z,5.30
2019-04-23T18:54:52.374Z,6.77
2019-04-23T18:59:57.129Z,7.50
2019-04-23T19:13:21.813Z,4.70
2019-04-23T19:15:40.640Z,7.83
2019-04-23T19:18:32.066Z,6.10
2019-04-23T19:21:08.014Z,4.87
2019-04-23T19:23:39.505Z,4.80
2019-04-23T19:26:32.317Z,4.63
2019-04-23T19:34:24.602Z,5.67
2019-04-23T19:36:49.188Z,4.87
2019-04-23T19:39:11.141Z,5.97
2019-04-23T19:41:49.546Z,5.93
2019-04-23T19:44:08.375Z,5.70
2019-04-23T19:49:11.296Z,5.97
2019-04-23T19:51:44.259Z,6.27
2019-04-23T19:54:21.957Z,7.03
2019-04-23T19:56:47.161Z,5.77
2019-04-23T19:59:13.895Z,6.60
2019-04-23T20:01:41.712Z,5.77
2019-04-23T20:04:04.404Z,5.67
2019-04-23T20:07:04.412Z,5.80
2019-04-23T20:09:33.467Z,5.20
2019-04-23T20:11:50.533Z,5.77
2019-04-23T20:14:09.580Z,5.83
2019-04-23T20:19:24.138Z,5.63
2019-04-23T20:21:50.865Z,6.50
2019-04-23T20:26:51.436Z,6.20
2019-04-23T20:34:51.818Z,6.50
2019-04-23T20:36:54.274Z,7.10
2019-04-23T20:39:32.704Z,7.30
2019-04-23T20:42:12.047Z,6.13
2019-04-23T20:54:43.142Z,6.67
2019-04-23T20:57:24.781Z,6.30
2019-04-23T20:59:56.396Z,6.10
2019-04-23T21:02:42.001Z,6.37
2019-04-23T21:05:10.167Z,7.47
2019-04-23T21:07:30.549Z,6.43
2019-04-23T21:10:09.196Z,7.40
2019-04-23T21:12:42.725Z,8.10
2019-04-23T21:15:04.873Z,7.00
2019-04-23T21:17:35.583Z,7.23
2019-04-23T21:22:32.105Z,7.13
2019-04-23T21:24:56.606Z,6.37
2019-04-23T21:27:40.992Z,7.10
2019-04-23T21:30:12.355Z,6.90
2019-04-23T21:32:49.519Z,6.80
2019-04-23T21:35:07.917Z,7.40
2019-04-23T21:40:42.441Z,7.83
2019-04-23T21:43:01.462Z,8.13
2019-04-23T21:45:25.866Z,6.87
2019-04-23T21:50:39.794Z,7.80
2019-04-23T21:55:37.074Z,7.50
2019-04-23T21:58:07.543Z,7.70
2019-04-23T22:00:39.350Z,6.87
2019-04-23T22:03:06.797Z,7.13
2019-04-23T22:05:39.960Z,6.47
2019-04-23T22:08:05.762Z,8.50
2019-04-23T22:10:25.663Z,7.53
2019-04-23T22:13:12.991Z,7.10
2019-04-23T22:15:34.547Z,7.43
2019-04-23T22:18:02.806Z,6.90
2019-04-23T22:23:30.565Z,7.27
2019-04-23T22:26:14.540Z,6.13
2019-04-23T22:28:33.295Z,7.30
2019-04-23T22:31:04.072Z,6.60
2019-04-23T22:33:37.252Z,8.17
2019-04-23T22:36:07.172Z,6.50
2019-04-23T22:38:25.866Z,7.87
2019-04-23T22:41:01.825Z,7.20
2019-04-23T22:43:31.114Z,7.00
2019-04-23T22:46:20.691Z,7.30
2019-04-23T22:48:34.937Z,7.13
2019-04-23T22:51:13.472Z,7.70
2019-04-23T22:53:24.817Z,7.33
2019-04-23T22:56:03.291Z,7.30
2019-04-23T22:58:31.505Z,7.30
2019-04-23T23:01:21.192Z,7.37
2019-04-23T23:03:51.622Z,7.93
2019-04-23T23:06:21.048Z,8.00
2019-04-23T23:09:02.642Z,6.67
2019-04-23T23:11:16.879Z,8.23
2019-04-23T23:14:10.157Z,7.30
2019-04-23T23:16:21.400Z,8.10
2019-04-23T23:19:01.176Z,8.17
2019-04-23T23:21:20.464Z,7.73
2019-04-23T23:23:56.467Z,7.63
2019-04-23T23:26:28.058Z,6.80
2019-04-23T23:28:55.104Z,7.07
2019-04-23T23:31:22.566Z,7.00
2019-04-23T23:33:55.752Z,6.77
2019-04-23T23:38:58.655Z,8.43
2019-04-23T23:41:26.397Z,7.40
2019-04-23T23:44:07.938Z,7.10
2019-04-23T23:46:46.955Z,6.83
2019-04-23T23:48:57.036Z,7.60
2019-04-23T23:51:30.885Z,6.87
2019-04-23T23:54:04.961Z,7.47
2019-04-23T23:56:30.195Z,8.67
2019-04-23T23:59:03.870Z,8.03
